Time;durP1;ratioP1;P1;durP2;ratioP2;P2;SDS_P1;SDS_P2;PMS_P1;PMS_P2;Temp;Humidity;BMP_temperature;BMP_pressure;BME280_temperature;BME280_humidity;BME280_pressure;Samples;Min_cycle;Max_cycle;Signal;HPM_P1;HPM_P2
2021/01/09 00:36:40;;;;;;;;;;;;;;;;;;;;;
2021/01/09 01:13:37;;;;;;;9.70;8.70;;;1.90;99.90;;;;;;5826066;24;20210;-86
2021/01/09 04:31:10;;;;;;;;;;;;;;;;;;;;;
2021/01/09 04:34:20;;;;;;;10.60;9.60;;;2.00;99.90;;;;;;5917633;24;20484;-86
2021/01/09 04:36:47;;;;;;;12.83;11.43;;;2.00;99.90;;;;;;6063476;23;20451;-86
2021/01/09 04:39:17;;;;;;;11.27;9.30;;;2.00;99.90;;;;;;6170994;23;20452;-86
2021/01/09 04:41:44;;;;;;;11.00;9.73;;;2.00;99.90;;;;;;6171101;23;20420;-86
2021/01/09 04:44:15;;;;;;;11.30;10.20;;;2.00;99.90;;;;;;6196129;23;20435;-86
2021/01/09 04:46:50;;;;;;;9.97;8.97;;;2.00;99.90;;;;;;6172027;23;20416;-86
2021/01/09 04:49:19;;;;;;;10.67;9.67;;;2.10;99.90;;;;;;6171390;23;20451;-86
2021/01/09 04:51:48;;;;;;;11.10;9.93;;;2.00;99.90;;;;;;6171786;23;20420;-86
2021/01/09 04:54:18;;;;;;;11.00;9.93;;;2.10;99.90;;;;;;6171846;23;20447;-86
2021/01/09 04:56:48;;;;;;;10.80;9.80;;;2.10;99.90;;;;;;6171225;23;20447;-86
2021/01/09 05:38:02;;;;;;;12.73;10.30;;;2.00;99.90;;;;;;5918925;24;20462;-86
2021/01/09 05:40:38;;;;;;;10.83;9.63;;;2.00;99.90;;;;;;5998515;23;20419;-86
2021/01/09 05:43:09;;;;;;;10.83;9.83;;;2.00;99.90;;;;;;6077692;23;20492;-86
2021/01/09 05:45:38;;;;;;;10.07;9.17;;;2.00;99.90;;;;;;6076781;23;20420;-86
2021/01/09 05:48:07;;;;;;;10.90;9.90;;;2.00;99.90;;;;;;6053872;23;20538;-86
2021/01/09 05:50:37;;;;;;;10.53;9.43;;;2.00;99.90;;;;;;6053248;23;20423;-86
2021/01/09 05:53:38;;;;;;;10.97;9.87;;;2.00;99.90;;;;;;6053457;23;20467;-86
2021/01/09 05:56:11;;;;;;;10.67;9.50;;;2.10;99.90;;;;;;6075736;23;20832;-86
2021/01/09 06:58:09;;;;;;;11.20;10.10;;;2.00;99.90;;;;;;5937804;23;20467;-86
2021/01/09 07:01:21;;;;;;;10.73;9.70;;;2.00;99.90;;;;;;6017352;23;20448;-86
2021/01/09 07:03:54;;;;;;;10.20;9.20;;;2.00;99.90;;;;;;6012019;23;20421;-86
2021/01/09 07:06:57;;;;;;;11.33;10.30;;;2.00;99.90;;;;;;5997182;24;20406;-86
2021/01/09 07:09:24;;;;;;;10.57;9.47;;;2.00;99.90;;;;;;5986463;24;20450;-86
2021/01/09 07:11:57;;;;;;;8.33;7.53;;;2.00;99.90;;;;;;5995641;23;20429;-86
2021/01/09 07:14:35;;;;;;;10.20;9.23;;;2.00;99.90;;;;;;6107357;23;20414;-86
2021/01/09 07:17:03;;;;;;;9.63;8.70;;;2.00;99.90;;;;;;6106330;23;20477;-86
2021/01/09 07:19:31;;;;;;;9.10;8.30;;;2.00;99.90;;;;;;6106774;23;20470;-86
2021/01/09 07:22:03;;;;;;;9.20;8.30;;;2.00;99.90;;;;;;6106584;23;20422;-87
2021/01/09 07:24:38;;;;;;;10.77;9.70;;;2.00;99.90;;;;;;6083613;23;20417;-86
2021/01/09 07:27:07;;;;;;;10.37;9.37;;;2.10;99.90;;;;;;6107034;23;20902;-86
2021/01/09 07:29:39;;;;;;;9.77;8.77;;;2.10;99.90;;;;;;6162111;23;20439;-86
2021/01/09 07:32:07;;;;;;;10.37;9.47;;;2.10;99.90;;;;;;6171619;23;20473;-86
2021/01/09 07:34:51;;;;;;;10.50;9.40;;;2.10;99.90;;;;;;6171343;23;20420;-86
2021/01/09 07:37:18;;;;;;;10.40;9.33;;;2.10;99.90;;;;;;6197256;23;20926;-86
2021/01/09 07:39:55;;;;;;;10.57;9.57;;;2.10;99.90;;;;;;6171546;23;20440;-86
2021/01/09 07:42:32;;;;;;;10.60;9.60;;;2.10;99.90;;;;;;6195195;23;20427;-86
2021/01/09 07:45:08;;;;;;;10.90;9.80;;;2.10;99.90;;;;;;6171119;23;20408;-86
2021/01/09 08:03:49;;;;;;;9.70;8.80;;;1.90;99.90;;;;;;5768032;24;20488;-86
2021/01/09 08:32:30;;;;;;;11.30;10.20;;;1.70;99.90;;;;;;5841645;24;20445;-86
2021/01/09 08:46:37;;;;;;;13.70;12.20;;;1.60;99.90;;;;;;5834857;24;20757;-86
2021/01/09 08:52:23;;;;;;;11.70;10.60;;;1.70;99.90;;;;;;5871902;24;20423;-86
2021/01/09 08:54:54;;;;;;;11.30;10.10;;;1.70;99.90;;;;;;5926151;24;20916;-86
2021/01/09 08:57:21;;;;;;;11.73;10.50;;;1.70;99.90;;;;;;5933395;24;20539;-88
2021/01/09 08:59:49;;;;;;;11.90;10.80;;;1.70;99.90;;;;;;5908645;24;20444;-88
2021/01/09 09:02:21;;;;;;;12.27;11.07;;;1.80;99.90;;;;;;5933633;24;20469;-86
2021/01/09 09:04:53;;;;;;;11.53;10.43;;;1.80;99.90;;;;;;5912977;24;20424;-86
2021/01/09 09:07:21;;;;;;;12.47;11.27;;;1.80;99.90;;;;;;5912089;24;20424;-86
2021/01/09 09:09:49;;;;;;;12.23;10.97;;;1.80;99.90;;;;;;5935899;24;20478;-87
2021/01/09 09:12:24;;;;;;;10.93;9.83;;;1.80;99.90;;;;;;5912474;24;20432;-87
2021/01/09 09:14:55;;;;;;;11.00;9.90;;;1.80;99.90;;;;;;5911051;24;20440;-86
2021/01/09 09:17:25;;;;;;;11.17;10.07;;;2.00;99.90;;;;;;6033714;23;20225;-86
2021/01/09 09:19:52;;;;;;;11.47;10.27;;;2.00;99.90;;;;;;6166100;23;20432;-86
2021/01/09 09:22:29;;;;;;;12.40;11.20;;;2.00;99.90;;;;;;6164516;23;20425;-86
2021/01/09 09:24:57;;;;;;;13.23;11.93;;;2.00;99.90;;;;;;6166137;23;20476;-86
2021/01/09 09:27:25;;;;;;;12.90;11.60;;;2.00;99.90;;;;;;6164866;23;20413;-86
2021/01/09 09:30:06;;;;;;;12.43;11.17;;;2.00;99.90;;;;;;6165752;23;20519;-85
2021/01/09 09:32:36;;;;;;;13.73;12.40;;;2.00;99.90;;;;;;6166296;23;20450;-86
2021/01/09 09:35:20;;;;;;;13.27;11.97;;;2.00;99.90;;;;;;6166211;23;20416;-86
2021/01/09 09:37:48;;;;;;;13.70;12.17;;;2.00;99.90;;;;;;6165065;23;20433;-86
2021/01/09 09:40:26;;;;;;;12.30;11.10;;;2.10;99.90;;;;;;6165274;23;20415;-86
2021/01/09 09:42:53;;;;;;;12.13;10.90;;;2.10;99.90;;;;;;6176742;23;20393;-86
2021/01/09 09:45:21;;;;;;;12.63;11.33;;;2.10;99.90;;;;;;6174927;23;20389;-86
2021/01/09 09:47:51;;;;;;;11.60;10.50;;;2.10;99.90;;;;;;6161253;23;20425;-86
2021/01/09 09:50:19;;;;;;;11.57;10.40;;;2.10;99.90;;;;;;6161507;23;20951;-86
2021/01/09 09:52:56;;;;;;;11.10;9.80;;;2.20;99.90;;;;;;6158876;23;20428;-86
2021/01/09 09:55:24;;;;;;;11.30;10.20;;;2.20;99.90;;;;;;6158463;23;20428;-86
2021/01/09 09:58:05;;;;;;;11.63;10.43;;;2.10;99.90;;;;;;6158809;23;20440;-85
2021/01/09 10:00:39;;;;;;;11.63;10.57;;;2.20;99.90;;;;;;6162409;23;20440;-86
2021/01/09 10:03:08;;;;;;;14.20;11.20;;;2.20;99.90;;;;;;6164695;23;20431;-86
2021/01/09 10:05:35;;;;;;;11.50;10.40;;;2.30;99.90;;;;;;6165267;23;20904;-86
2021/01/09 10:08:13;;;;;;;11.80;10.70;;;2.30;99.90;;;;;;6165615;23;20982;-86
2021/01/09 10:10:41;;;;;;;11.40;10.27;;;2.30;99.90;;;;;;6166182;23;20420;-86
2021/01/09 10:13:09;;;;;;;12.40;9.80;;;2.30;99.90;;;;;;6165861;23;20421;-86
2021/01/09 10:15:37;;;;;;;12.30;11.10;;;2.30;99.90;;;;;;6165963;23;20436;-86
2021/01/09 10:18:05;;;;;;;10.03;9.10;;;2.30;99.90;;;;;;6164957;23;20449;-86
2021/01/09 10:20:33;;;;;;;11.87;9.70;;;2.30;99.90;;;;;;6177698;23;20404;-86
2021/01/09 10:23:00;;;;;;;10.17;9.17;;;2.30;99.90;;;;;;6166036;23;20417;-86
2021/01/09 10:25:28;;;;;;;10.80;9.80;;;2.40;99.90;;;;;;6165083;23;20416;-86
2021/01/09 10:27:55;;;;;;;11.33;10.23;;;2.40;99.90;;;;;;6164192;23;20491;-86
2021/01/09 10:30:23;;;;;;;10.47;9.47;;;2.40;99.90;;;;;;6165513;23;20423;-86
2021/01/09 10:32:50;;;;;;;11.33;10.00;;;2.40;99.90;;;;;;6166990;23;20417;-86
2021/01/09 10:35:18;;;;;;;10.73;9.73;;;2.50;99.90;;;;;;6165324;23;20740;-86
2021/01/09 10:37:48;;;;;;;10.40;9.30;;;2.50;99.90;;;;;;6164835;23;20455;-87
2021/01/09 10:40:15;;;;;;;12.37;11.07;;;2.50;99.90;;;;;;6171776;23;20393;-87
2021/01/09 10:42:43;;;;;;;11.10;10.00;;;2.50;99.90;;;;;;6160719;23;20412;-88
2021/01/09 10:45:13;;;;;;;10.87;9.10;;;2.50;99.90;;;;;;6165356;23;20460;-81
2021/01/09 10:47:40;;;;;;;9.87;8.90;;;2.50;99.90;;;;;;6165665;23;20438;-80
2021/01/09 10:50:12;;;;;;;9.20;8.30;;;2.60;99.90;;;;;;6167058;23;20412;-80
2021/01/09 10:52:40;;;;;;;10.13;9.13;;;2.60;99.90;;;;;;6165988;23;20426;-80
2021/01/09 10:55:09;;;;;;;10.10;9.10;;;2.60;99.90;;;;;;6166594;23;20862;-80
2021/01/09 10:57:36;;;;;;;10.77;9.77;;;2.60;99.90;;;;;;6166055;23;20442;-80
2021/01/09 11:00:08;;;;;;;10.53;9.27;;;2.60;99.90;;;;;;6166623;23;20419;-80
2021/01/09 11:02:36;;;;;;;10.23;9.23;;;2.70;99.90;;;;;;6165863;23;20419;-80
2021/01/09 11:05:04;;;;;;;11.40;10.03;;;2.70;99.90;;;;;;6166276;23;20416;-80
2021/01/09 11:07:31;;;;;;;10.23;9.23;;;2.70;99.90;;;;;;6167615;23;20925;-80
2021/01/09 11:09:58;;;;;;;10.37;9.27;;;2.70;99.90;;;;;;6168125;23;20459;-80
2021/01/09 11:12:26;;;;;;;9.43;8.53;;;2.70;99.90;;;;;;6165474;23;20420;-80
2021/01/09 11:14:53;;;;;;;10.17;9.17;;;2.80;99.90;;;;;;6166191;23;20739;-80
2021/01/09 11:17:21;;;;;;;10.50;9.40;;;2.80;99.90;;;;;;6165224;23;20482;-80
2021/01/09 11:19:48;;;;;;;10.73;9.63;;;2.80;99.90;;;;;;6165226;23;20546;-80
2021/01/09 11:22:15;;;;;;;9.03;8.13;;;2.90;99.90;;;;;;6201497;23;20404;-80
2021/01/09 11:24:42;;;;;;;9.40;8.60;;;2.90;99.90;;;;;;6201550;23;20415;-80
2021/01/09 11:27:10;;;;;;;10.67;9.57;;;2.90;99.90;;;;;;6165168;23;20543;-80
2021/01/09 11:29:38;;;;;;;11.17;10.07;;;2.90;99.90;;;;;;6165440;23;20431;-80
2021/01/09 11:32:06;;;;;;;11.17;10.07;;;3.00;99.90;;;;;;6164821;23;20427;-80
2021/01/09 11:34:33;;;;;;;12.10;10.90;;;3.00;99.90;;;;;;6166205;23;20422;-80
2021/01/09 11:37:01;;;;;;;10.53;9.50;;;3.00;99.90;;;;;;6165925;23;20420;-80
2021/01/09 11:39:28;;;;;;;10.00;9.00;;;3.00;99.90;;;;;;6165567;23;20802;-80
2021/01/09 11:41:57;;;;;;;12.30;8.90;;;3.10;99.90;;;;;;6201234;23;20428;-80
2021/01/09 11:44:25;;;;;;;10.07;9.07;;;3.10;99.90;;;;;;6202963;23;20388;-80
2021/01/09 11:46:55;;;;;;;9.50;8.57;;;3.10;99.90;;;;;;6168087;23;20427;-80
2021/01/09 11:49:25;;;;;;;9.60;8.70;;;3.20;99.90;;;;;;6165007;23;20535;-80
2021/01/09 11:51:54;;;;;;;9.73;7.83;;;3.20;99.90;;;;;;6164432;23;20907;-80
2021/01/09 11:54:22;;;;;;;8.90;8.00;;;3.20;99.90;;;;;;6165040;23;20507;-80
2021/01/09 11:56:54;;;;;;;8.53;7.73;;;3.20;99.90;;;;;;6164848;23;20408;-80
2021/01/09 11:59:22;;;;;;;9.30;8.07;;;3.20;99.90;;;;;;6164316;23;20428;-80
2021/01/09 12:01:49;;;;;;;9.00;8.20;;;3.20;99.90;;;;;;6164644;23;20495;-80
2021/01/09 12:04:17;;;;;;;8.87;7.97;;;3.20;99.90;;;;;;6164901;23;20409;-80
2021/01/09 12:06:44;;;;;;;8.53;7.83;;;3.10;99.90;;;;;;6200953;23;20428;-80
2021/01/09 12:09:12;;;;;;;9.10;8.27;;;3.10;99.90;;;;;;6200479;23;20482;-80
2021/01/09 12:11:39;;;;;;;9.27;8.37;;;3.20;99.90;;;;;;6164977;23;20423;-80
2021/01/09 12:14:06;;;;;;;10.17;7.97;;;3.10;99.90;;;;;;6165050;23;20716;-80
2021/01/09 12:16:34;;;;;;;9.23;7.95;;;3.20;99.90;;;;;;6164498;23;20446;-80
2021/01/09 12:19:02;;;;;;;8.47;7.60;;;3.20;99.90;;;;;;6164236;23;20208;-80
2021/01/09 12:21:30;;;;;;;10.03;8.40;;;3.20;99.90;;;;;;6165182;23;20424;-80
2021/01/09 12:23:58;;;;;;;8.70;7.80;;;3.20;99.90;;;;;;6201156;23;20399;-80
2021/01/09 12:26:26;;;;;;;8.55;7.75;;;3.30;99.90;;;;;;6164608;23;20414;-80
2021/01/09 12:28:54;;;;;;;8.83;7.17;;;3.30;99.90;;;;;;6164199;23;20193;-80
2021/01/09 12:31:31;;;;;;;8.70;7.80;;;3.30;99.90;;;;;;6164113;23;20419;-80
2021/01/09 12:34:12;;;;;;;8.87;8.07;;;3.40;99.90;;;;;;6164795;23;20922;-80
2021/01/09 12:36:41;;;;;;;9.03;8.17;;;3.40;99.90;;;;;;6165100;23;20424;-80
2021/01/09 12:39:08;;;;;;;8.77;7.90;;;3.40;99.90;;;;;;6165628;23;20540;-80
2021/01/09 12:41:37;;;;;;;9.87;8.07;;;3.40;99.90;;;;;;6166685;23;20407;-80
2021/01/09 12:44:05;;;;;;;8.73;7.93;;;3.40;99.90;;;;;;6167608;23;20438;-80
2021/01/09 12:46:37;;;;;;;8.30;7.50;;;3.40;99.90;;;;;;6168326;23;20423;-80
2021/01/09 12:49:04;;;;;;;9.33;8.17;;;3.40;99.90;;;;;;6167780;23;20447;-80
2021/01/09 12:51:31;;;;;;;9.30;8.50;;;3.50;99.90;;;;;;6165489;23;20420;-80
2021/01/09 12:54:06;;;;;;;9.10;8.20;;;3.60;99.90;;;;;;6200567;23;20484;-80
2021/01/09 12:56:33;;;;;;;8.43;7.63;;;3.60;99.90;;;;;;6201023;23;20458;-80
2021/01/09 12:59:02;;;;;;;9.43;8.53;;;3.70;99.90;;;;;;6163843;23;20447;-80
2021/01/09 13:01:34;;;;;;;7.10;6.53;;;3.60;99.90;;;;;;6164522;23;20474;-80
2021/01/09 13:04:04;;;;;;;7.10;6.40;;;3.70;99.90;;;;;;6200862;23;20428;-80
2021/01/09 13:06:36;;;;;;;8.63;7.83;;;3.70;99.90;;;;;;6200607;23;20875;-80
2021/01/09 13:09:05;;;;;;;8.50;7.70;;;3.70;99.90;;;;;;6165259;23;20440;-81
2021/01/09 13:11:33;;;;;;;8.67;7.90;;;3.70;99.90;;;;;;6166095;23;20432;-80
2021/01/09 13:14:00;;;;;;;8.47;7.57;;;3.70;99.90;;;;;;6163001;23;20506;-80
2021/01/09 13:16:27;;;;;;;7.57;6.87;;;3.70;99.90;;;;;;6200723;23;20879;-81
2021/01/09 13:18:55;;;;;;;7.80;7.10;;;3.70;99.90;;;;;;6163996;23;20447;-80
2021/01/09 13:21:23;;;;;;;7.90;7.20;;;3.60;99.90;;;;;;6200927;23;20468;-80
2021/01/09 13:23:51;;;;;;;7.97;7.17;;;3.70;99.90;;;;;;6202667;23;20408;-81
2021/01/09 13:26:19;;;;;;;10.20;9.20;;;3.70;99.90;;;;;;6166777;23;20483;-80
2021/01/09 13:28:47;;;;;;;11.73;9.63;;;3.70;99.90;;;;;;6166518;23;20919;-80
2021/01/09 13:31:15;;;;;;;10.40;8.73;;;3.70;99.90;;;;;;6167081;23;20810;-80
2021/01/09 13:33:42;;;;;;;7.70;7.00;;;3.70;99.90;;;;;;6205010;23;20400;-81
2021/01/09 13:36:11;;;;;;;7.00;6.40;;;3.70;99.90;;;;;;6169072;23;20423;-84
2021/01/09 13:38:39;;;;;;;7.47;6.77;;;3.70;99.90;;;;;;6164739;23;20505;-80
2021/01/09 13:41:06;;;;;;;9.67;8.77;;;3.70;99.90;;;;;;6202299;23;20388;-80
2021/01/09 13:43:35;;;;;;;12.70;10.40;;;3.80;99.90;;;;;;6164143;23;20420;-80
2021/01/09 13:46:02;;;;;;;9.50;7.50;;;3.90;99.90;;;;;;6163234;23;20424;-80
2021/01/09 13:48:31;;;;;;;7.10;5.90;;;3.80;99.90;;;;;;6163501;23;20458;-80
2021/01/09 13:51:01;;;;;;;7.10;6.40;;;3.80;99.90;;;;;;6164495;23;20409;-79
2021/01/09 13:53:29;;;;;;;6.47;5.90;;;3.80;99.90;;;;;;6164847;23;20510;-79
2021/01/09 13:55:57;;;;;;;5.77;5.07;;;3.80;99.90;;;;;;6164517;23;20422;-79
2021/01/09 13:58:24;;;;;;;6.20;5.60;;;3.70;99.90;;;;;;6164819;23;20448;-80
2021/01/09 14:00:52;;;;;;;6.53;6.03;;;3.70;99.90;;;;;;6165065;23;20423;-80
2021/01/09 14:03:21;;;;;;;6.97;6.30;;;3.70;99.90;;;;;;6164630;23;20515;-80
2021/01/09 14:05:48;;;;;;;7.10;6.40;;;3.70;99.90;;;;;;6201588;23;20879;-79
2021/01/09 14:08:15;;;;;;;7.50;6.80;;;3.70;99.90;;;;;;6164006;23;20435;-79
2021/01/09 14:10:43;;;;;;;7.60;6.90;;;3.60;99.90;;;;;;6199647;23;20426;-79
2021/01/09 14:13:10;;;;;;;5.93;5.40;;;3.80;99.90;;;;;;6164087;23;20259;-79
2021/01/09 14:15:38;;;;;;;7.63;6.93;;;3.70;99.90;;;;;;6164149;23;20416;-79
2021/01/09 14:18:07;;;;;;;6.47;5.87;;;3.70;99.90;;;;;;6200114;23;20446;-79
2021/01/09 14:20:34;;;;;;;7.00;6.30;;;3.70;99.90;;;;;;6163897;23;20443;-79
2021/01/09 14:23:01;;;;;;;7.07;6.37;;;3.80;99.90;;;;;;6165627;23;20166;-79
2021/01/09 14:25:28;;;;;;;6.73;6.20;;;3.70;99.90;;;;;;6163262;23;20887;-79
2021/01/09 14:27:57;;;;;;;7.20;6.50;;;3.70;99.90;;;;;;6163957;23;20439;-79
2021/01/09 14:30:25;;;;;;;7.17;6.50;;;3.70;99.90;;;;;;6163826;23;20870;-79
2021/01/09 14:32:52;;;;;;;6.80;6.20;;;3.60;99.90;;;;;;6164449;23;20423;-79
2021/01/09 14:35:20;;;;;;;7.13;6.43;;;3.60;99.90;;;;;;6165088;23;20411;-79
2021/01/09 14:37:48;;;;;;;5.50;4.93;;;3.50;99.90;;;;;;6200194;23;20460;-79
2021/01/09 14:40:16;;;;;;;6.83;6.00;;;3.50;99.90;;;;;;6163826;23;20470;-79
2021/01/09 14:42:43;;;;;;;7.00;6.17;;;3.50;99.90;;;;;;6163210;23;20423;-79
2021/01/09 14:45:14;;;;;;;5.97;5.47;;;3.50;99.90;;;;;;6163178;23;20427;-79
2021/01/09 14:47:41;;;;;;;6.00;5.50;;;3.40;99.90;;;;;;6162632;23;20455;-79
2021/01/09 14:50:10;;;;;;;8.10;6.93;;;3.50;99.90;;;;;;6163838;23;20462;-79
2021/01/09 14:52:39;;;;;;;7.47;6.80;;;3.40;99.90;;;;;;6163525;23;20408;-80
2021/01/09 14:55:07;;;;;;;9.77;7.00;;;3.40;99.90;;;;;;6162907;23;20435;-80
2021/01/09 14:57:34;;;;;;;8.10;7.30;;;3.40;99.90;;;;;;6162733;23;20427;-80
2021/01/09 15:00:03;;;;;;;8.60;7.80;;;3.40;99.90;;;;;;6163588;23;20466;-80
2021/01/09 15:02:30;;;;;;;7.87;7.17;;;3.40;99.90;;;;;;6162636;23;20424;-79
2021/01/09 15:04:58;;;;;;;7.37;6.67;;;3.30;99.90;;;;;;6162760;23;20404;-79
2021/01/09 15:07:25;;;;;;;8.10;7.40;;;3.30;99.90;;;;;;6162933;23;20420;-79
2021/01/09 15:09:54;;;;;;;7.17;6.57;;;3.30;99.90;;;;;;6199331;23;20420;-79
2021/01/09 15:12:21;;;;;;;7.30;6.60;;;3.20;99.90;;;;;;6162757;23;20474;-79
2021/01/09 15:14:48;;;;;;;7.17;6.53;;;3.30;99.90;;;;;;6162491;23;20404;-79
2021/01/09 15:17:16;;;;;;;7.33;6.67;;;3.30;99.90;;;;;;6163204;23;20879;-79
2021/01/09 15:19:43;;;;;;;7.80;7.20;;;3.30;99.90;;;;;;6163276;23;20756;-79
2021/01/09 15:22:12;;;;;;;8.67;7.97;;;3.30;99.90;;;;;;6162769;23;20415;-79
2021/01/09 15:24:39;;;;;;;7.67;7.07;;;3.20;99.90;;;;;;6163886;23;20732;-79
2021/01/09 15:27:07;;;;;;;8.17;7.47;;;3.20;99.90;;;;;;6164762;23;20419;-79
2021/01/09 15:29:34;;;;;;;8.23;7.53;;;3.20;99.90;;;;;;6164203;23;20927;-79
2021/01/09 15:32:02;;;;;;;8.20;7.50;;;3.20;99.90;;;;;;6164881;23;20416;-79
2021/01/09 15:34:29;;;;;;;7.97;7.17;;;3.20;99.90;;;;;;6201440;23;20404;-79
2021/01/09 15:36:56;;;;;;;7.50;6.87;;;3.20;99.90;;;;;;6201717;23;20373;-79
2021/01/09 15:39:24;;;;;;;8.30;7.60;;;3.20;99.90;;;;;;6201271;23;20439;-80
2021/01/09 15:41:52;;;;;;;8.97;7.30;;;3.20;99.90;;;;;;6164998;23;20423;-79
2021/01/09 15:44:22;;;;;;;7.33;6.73;;;3.10;99.90;;;;;;6164611;23;20424;-79
2021/01/09 15:46:51;;;;;;;8.50;7.70;;;3.10;99.90;;;;;;6165182;23;20430;-79
2021/01/09 15:49:19;;;;;;;7.73;7.13;;;3.00;99.90;;;;;;6164899;23;20511;-79
2021/01/09 15:51:49;;;;;;;7.60;6.80;;;3.10;99.90;;;;;;6164951;23;20755;-79
2021/01/09 15:54:17;;;;;;;8.23;7.50;;;3.10;99.90;;;;;;6164624;23;20416;-79
2021/01/09 15:56:45;;;;;;;7.67;6.93;;;3.00;99.90;;;;;;6201764;23;20400;-79
2021/01/09 15:59:13;;;;;;;9.07;8.27;;;3.00;99.90;;;;;;6165567;23;20448;-79
2021/01/09 16:01:42;;;;;;;9.70;8.80;;;3.00;99.90;;;;;;6164520;23;20420;-79
2021/01/09 16:04:10;;;;;;;9.97;9.07;;;2.90;99.90;;;;;;6163998;23;20420;-79
2021/01/09 16:06:38;;;;;;;9.00;8.30;;;2.90;99.90;;;;;;6163899;23;20416;-79
2021/01/09 16:09:07;;;;;;;10.37;9.47;;;2.90;99.90;;;;;;6163876;23;20767;-79
2021/01/09 16:11:35;;;;;;;9.93;9.00;;;2.80;99.90;;;;;;6164359;23;20412;-79
2021/01/09 16:14:02;;;;;;;9.60;8.43;;;2.80;99.90;;;;;;6200978;23;20487;-79
2021/01/09 16:16:31;;;;;;;11.90;10.90;;;2.80;99.90;;;;;;6164433;23;20419;-79
2021/01/09 16:19:00;;;;;;;10.60;9.60;;;2.70;99.90;;;;;;6164889;23;20487;-79
2021/01/09 16:21:27;;;;;;;13.77;12.57;;;2.70;99.90;;;;;;6200936;23;20423;-79
2021/01/09 16:23:55;;;;;;;13.73;12.33;;;2.70;99.90;;;;;;6164519;23;20415;-79
2021/01/09 16:26:28;;;;;;;14.20;12.80;;;2.60;99.90;;;;;;6163604;23;20442;-79
2021/01/09 16:28:56;;;;;;;18.20;16.53;;;2.60;99.90;;;;;;6200188;23;20446;-79
2021/01/09 16:31:37;;;;;;;16.30;14.70;;;2.60;99.90;;;;;;6163829;23;20790;-79
2021/01/09 16:34:08;;;;;;;17.43;15.90;;;2.60;99.90;;;;;;6164181;23;20419;-80
2021/01/09 16:36:55;;;;;;;16.43;14.90;;;2.50;99.90;;;;;;6165088;23;20476;-80
2021/01/09 16:39:22;;;;;;;16.50;14.90;;;2.50;99.90;;;;;;6201606;23;20531;-80
2021/01/09 16:41:50;;;;;;;17.20;15.57;;;2.50;99.90;;;;;;6164973;23;20475;-80
2021/01/09 16:44:17;;;;;;;16.30;14.80;;;2.50;99.90;;;;;;6201489;23;20400;-80
2021/01/09 16:46:45;;;;;;;17.97;16.10;;;2.40;99.90;;;;;;6165538;23;20895;-80
2021/01/09 16:49:14;;;;;;;17.35;15.75;;;2.40;99.90;;;;;;6202555;23;20410;-80
2021/01/09 16:51:41;;;;;;;19.27;17.23;;;2.40;99.90;;;;;;6168558;23;20207;-80
2021/01/09 16:54:09;;;;;;;19.77;17.87;;;2.40;99.90;;;;;;6205499;23;20400;-80
2021/01/09 16:56:37;;;;;;;21.63;19.53;;;2.40;99.90;;;;;;6204626;23;20404;-80
2021/01/09 16:59:05;;;;;;;22.80;20.70;;;2.30;99.90;;;;;;6168605;23;20480;-80
2021/01/09 17:01:33;;;;;;;23.70;21.40;;;2.30;99.90;;;;;;6170117;23;20447;-80
2021/01/09 17:04:01;;;;;;;23.90;21.57;;;2.30;99.90;;;;;;6170012;23;20434;-80
2021/01/09 17:06:39;;;;;;;24.03;21.70;;;2.30;99.90;;;;;;6170672;23;20917;-80
2021/01/09 17:09:06;;;;;;;35.40;25.43;;;2.30;99.90;;;;;;6175152;23;20432;-80
2021/01/09 17:11:38;;;;;;;39.20;29.30;;;2.20;99.90;;;;;;6205792;23;20407;-80
2021/01/09 17:14:05;;;;;;;45.37;30.57;;;2.20;99.90;;;;;;6167832;23;20415;-80
2021/01/09 17:16:35;;;;;;;46.40;32.47;;;2.20;99.90;;;;;;6168711;23;20447;-80
2021/01/09 17:19:03;;;;;;;54.47;31.83;;;2.20;99.90;;;;;;6167580;23;20526;-80
2021/01/09 17:21:42;;;;;;;38.67;27.20;;;2.10;99.90;;;;;;6168630;23;20412;-80
2021/01/09 17:24:11;;;;;;;35.77;27.47;;;2.10;99.90;;;;;;6169175;23;20420;-80
2021/01/09 17:26:39;;;;;;;43.43;29.83;;;2.10;99.90;;;;;;6170186;23;20467;-80
2021/01/09 17:29:07;;;;;;;32.43;24.70;;;2.00;99.90;;;;;;6169442;23;20447;-80
2021/01/09 17:31:40;;;;;;;37.33;27.73;;;2.00;99.90;;;;;;6170835;23;20798;-80
2021/01/09 17:34:08;;;;;;;27.73;23.27;;;2.00;99.90;;;;;;6168326;23;20416;-79
2021/01/09 17:36:36;;;;;;;29.37;24.77;;;2.00;99.90;;;;;;6167753;23;20910;-79
2021/01/09 17:39:05;;;;;;;29.67;23.60;;;1.90;99.90;;;;;;6204729;23;20432;-79
2021/01/09 17:41:33;;;;;;;26.60;23.80;;;1.90;99.90;;;;;;6205143;23;20447;-80
2021/01/09 17:44:01;;;;;;;25.93;23.07;;;1.90;99.90;;;;;;6168671;23;20413;-80
2021/01/09 17:46:30;;;;;;;28.17;23.20;;;1.90;99.90;;;;;;6205790;23;20743;-80
2021/01/09 17:48:59;;;;;;;26.57;24.00;;;1.90;99.90;;;;;;6170179;23;20435;-79
2021/01/09 17:51:27;;;;;;;26.57;23.80;;;1.90;99.90;;;;;;6170120;23;20400;-80
2021/01/09 17:53:57;;;;;;;27.30;24.60;;;1.90;99.90;;;;;;6206774;23;20395;-80
2021/01/09 17:56:26;;;;;;;26.97;24.27;;;1.90;99.90;;;;;;6169286;23;20416;-80
2021/01/09 17:58:53;;;;;;;29.37;26.57;;;1.90;99.90;;;;;;6169728;23;20467;-80
2021/01/09 18:01:22;;;;;;;30.47;27.23;;;1.90;99.90;;;;;;6171175;23;20420;-80
2021/01/09 18:03:52;;;;;;;32.90;29.47;;;1.90;99.90;;;;;;6169405;23;20907;-80
2021/01/09 18:06:20;;;;;;;29.27;26.30;;;1.90;99.90;;;;;;6170944;23;20416;-80
2021/01/09 18:08:50;;;;;;;31.33;28.30;;;1.90;99.90;;;;;;6172200;23;20455;-80
2021/01/09 18:11:18;;;;;;;33.83;30.47;;;1.90;99.90;;;;;;6170823;23;20456;-80
2021/01/09 18:13:47;;;;;;;32.13;28.83;;;1.90;99.90;;;;;;6211682;23;20400;-80
2021/01/09 18:16:22;;;;;;;32.77;29.47;;;1.90;99.90;;;;;;6176869;23;20444;-80
2021/01/09 18:18:53;;;;;;;34.27;31.03;;;1.90;99.90;;;;;;6174253;23;21036;-80
2021/01/09 18:21:23;;;;;;;34.70;31.40;;;1.90;99.90;;;;;;6173404;23;20408;-80
2021/01/09 18:23:54;;;;;;;30.70;27.43;;;1.90;99.90;;;;;;6172591;23;20414;-80
2021/01/09 18:26:27;;;;;;;29.87;26.87;;;1.80;99.90;;;;;;6170516;23;20870;-79
2021/01/09 18:28:58;;;;;;;30.90;28.10;;;1.90;99.90;;;;;;6170621;23;20463;-79
2021/01/09 18:31:27;;;;;;;28.53;25.90;;;1.90;99.90;;;;;;6169213;23;20404;-80
2021/01/09 18:33:56;;;;;;;30.37;27.47;;;1.90;99.90;;;;;;6168142;23;20424;-80
2021/01/09 18:36:27;;;;;;;32.20;28.90;;;1.90;99.90;;;;;;6166240;23;20416;-80
2021/01/09 18:38:57;;;;;;;28.87;25.80;;;1.90;99.90;;;;;;6168467;23;20515;-80
2021/01/09 18:41:25;;;;;;;28.80;26.07;;;1.90;99.90;;;;;;6170037;23;20921;-80
2021/01/09 18:43:53;;;;;;;31.10;28.00;;;1.90;99.90;;;;;;6169444;23;20451;-80
2021/01/09 18:46:21;;;;;;;37.03;33.57;;;1.90;99.90;;;;;;6169241;23;20493;-80
2021/01/09 18:49:02;;;;;;;35.90;32.20;;;1.90;99.90;;;;;;6171259;23;20507;-80
2021/01/09 18:51:56;;;;;;;44.10;39.67;;;1.90;99.90;;;;;;6170695;23;20427;-80
2021/01/09 18:54:49;;;;;;;43.33;38.87;;;1.90;99.90;;;;;;6171207;23;20420;-80
2021/01/09 18:57:17;;;;;;;40.60;36.30;;;1.90;99.90;;;;;;6171322;23;20541;-81
2021/01/09 18:59:46;;;;;;;38.90;35.20;;;1.90;99.90;;;;;;6172630;23;20443;-80
2021/01/09 19:02:15;;;;;;;38.50;34.80;;;1.90;99.90;;;;;;6171499;23;20407;-79
2021/01/09 19:04:44;;;;;;;37.43;32.30;;;1.90;99.90;;;;;;6170121;23;20506;-79
2021/01/09 19:07:33;;;;;;;42.23;38.03;;;1.90;99.90;;;;;;6170106;23;20408;-79
2021/01/09 19:10:01;;;;;;;37.47;34.17;;;1.90;99.90;;;;;;6170062;23;20535;-79
2021/01/09 19:12:41;;;;;;;37.47;33.57;;;1.90;99.90;;;;;;6170515;23;20906;-80
2021/01/09 19:15:31;;;;;;;39.50;35.80;;;1.90;99.90;;;;;;6167263;23;20588;-80
2021/01/09 19:18:07;;;;;;;39.30;35.40;;;1.90;99.90;;;;;;6166822;23;20455;-80
2021/01/09 19:20:49;;;;;;;35.27;31.67;;;1.80;99.90;;;;;;6167034;23;20434;-79
2021/01/09 19:23:19;;;;;;;36.60;33.20;;;1.80;99.90;;;;;;6168054;23;20520;-79
2021/01/09 19:25:52;;;;;;;31.67;28.60;;;1.80;99.90;;;;;;6166932;23;20412;-79
2021/01/09 19:28:20;;;;;;;32.45;29.45;;;1.80;99.90;;;;;;6165520;23;20411;-80
2021/01/09 19:31:04;;;;;;;31.60;28.70;;;1.80;99.90;;;;;;6166414;23;20176;-79
2021/01/09 19:33:41;;;;;;;32.17;29.13;;;1.80;99.90;;;;;;6166207;23;20412;-79
2021/01/09 19:36:14;;;;;;;32.80;29.67;;;1.80;99.90;;;;;;6164866;23;20443;-79
2021/01/09 19:38:42;;;;;;;41.13;37.33;;;1.80;99.90;;;;;;6164206;23;20451;-79
2021/01/09 19:41:11;;;;;;;37.40;33.80;;;1.70;99.90;;;;;;6164321;23;20480;-79
2021/01/09 19:43:39;;;;;;;40.80;36.87;;;1.70;99.90;;;;;;6164331;23;20424;-79
2021/01/09 19:46:12;;;;;;;42.13;38.10;;;1.60;99.90;;;;;;6163782;23;20427;-79
2021/01/09 19:48:56;;;;;;;49.23;44.10;;;1.50;99.90;;;;;;6164961;23;20463;-79
2021/01/09 19:51:23;;;;;;;45.47;41.13;;;1.50;99.90;;;;;;6173022;23;20448;-80
2021/01/09 19:53:53;;;;;;;44.10;39.70;;;1.50;99.90;;;;;;6169612;23;20420;-80
2021/01/09 19:56:27;;;;;;;40.40;36.40;;;1.50;99.90;;;;;;6170935;23;20415;-79
2021/01/09 19:58:55;;;;;;;42.33;38.07;;;1.50;99.90;;;;;;6169803;23;20494;-79
2021/01/09 20:01:24;;;;;;;43.60;39.50;;;1.40;99.90;;;;;;6175518;23;20439;-81
2021/01/09 20:03:52;;;;;;;42.43;38.37;;;1.40;99.90;;;;;;6177284;23;20424;-80